Saguenay, Canada
Current Conditions -  °F | °C
As of 7:00 AM on Thursday 18 Dec 2014 (Local Time) from CYBG Reporting Station
Light Snow Light Snow  
Wind Chill: 23°   Ceiling: 2500
Heat Index: 28°   Visibility: 4mi
Dew Point: 25°   Wind: 5mph
Humidity: 86%   Direction: 310°NW
Pressure: 29.8"   Gusts: NA
Location:  48.42°N, 71.07°W
Report Text: CYBG 181200Z 31004KT 4SM -SN OVC025 M02/M04 A2980 RMK SC8 /S01/ SLP102
Loading
Personal Weather Stations






























Interactive Weather Map New forecast layout! Learn more

10-Day Weather Forecast

Advertisements
Track Severe Weather on mobile